createdAt,value
2018-11-28T00:01:38.954Z,24.87
2018-11-28T00:04:13.553Z,25.37
2018-11-28T00:06:45.438Z,26.30
2018-11-28T00:09:17.892Z,25.97
2018-11-28T00:11:49.515Z,25.47
2018-11-28T00:14:20.398Z,24.27
2018-11-28T00:16:51.128Z,22.90
2018-11-28T00:19:22.542Z,24.83
2018-11-28T00:21:52.806Z,24.30
2018-11-28T00:24:24.330Z,26.13
2018-11-28T00:26:56.573Z,25.43
2018-11-28T00:29:27.532Z,24.30
2018-11-28T00:31:58.287Z,25.87
2018-11-28T00:34:30.802Z,26.50
2018-11-28T00:37:02.822Z,24.77
2018-11-28T00:39:34.918Z,25.23
2018-11-28T00:42:05.447Z,24.97
2018-11-28T00:44:38.291Z,26.13
2018-11-28T00:47:10.102Z,24.43
2018-11-28T00:49:43.051Z,23.00
2018-11-28T00:52:17.282Z,24.97
2018-11-28T00:54:49.013Z,25.37
2018-11-28T00:57:20.668Z,26.17
2018-11-28T00:59:52.639Z,26.73
2018-11-28T01:02:25.838Z,25.07
2018-11-28T01:04:58.014Z,24.90
2018-11-28T01:07:29.646Z,24.97
2018-11-28T01:10:00.738Z,24.73
2018-11-28T01:12:34.534Z,24.50
2018-11-28T01:15:07.349Z,24.50
2018-11-28T01:17:42.221Z,25.07
2018-11-28T01:20:23.544Z,25.10
2018-11-28T01:22:53.983Z,24.03
2018-11-28T01:25:24.901Z,25.67
2018-11-28T01:27:57.566Z,23.70
2018-11-28T01:30:29.313Z,24.17
2018-11-28T01:33:00.555Z,24.93
2018-11-28T01:35:31.932Z,24.57
2018-11-28T01:38:05.371Z,24.87
2018-11-28T01:40:37.385Z,24.10
2018-11-28T01:43:10.262Z,24.30
2018-11-28T01:45:42.118Z,25.87
2018-11-28T01:48:14.255Z,27.17
2018-11-28T01:50:45.377Z,26.57
2018-11-28T01:53:17.813Z,25.27
2018-11-28T01:55:50.713Z,24.87
2018-11-28T01:58:23.079Z,25.37
2018-11-28T02:00:53.966Z,25.83
2018-11-28T02:03:26.417Z,24.03
2018-11-28T02:05:57.345Z,23.47
2018-11-28T02:08:27.947Z,26.87
2018-11-28T02:11:01.311Z,25.70
2018-11-28T02:13:32.434Z,26.50
2018-11-28T02:16:04.718Z,28.10
2018-11-28T02:18:35.274Z,27.43
2018-11-28T02:21:05.802Z,27.10
2018-11-28T02:23:37.083Z,26.40
2018-11-28T02:26:09.612Z,26.97
2018-11-28T02:28:41.212Z,27.40
2018-11-28T02:31:15.880Z,27.10
2018-11-28T02:33:46.334Z,26.70
2018-11-28T02:36:17.016Z,26.70
2018-11-28T02:38:49.337Z,27.40
2018-11-28T02:41:21.104Z,28.47
2018-11-28T02:43:53.160Z,28.60
2018-11-28T02:46:29.954Z,28.93
2018-11-28T02:49:01.465Z,28.97
2018-11-28T02:51:32.583Z,28.63
2018-11-28T02:54:04.607Z,26.60
2018-11-28T02:56:36.010Z,27.47
2018-11-28T02:59:08.903Z,27.53
2018-11-28T03:01:39.539Z,28.90
2018-11-28T03:04:11.459Z,28.90
2018-11-28T03:06:42.750Z,27.10
2018-11-28T03:09:13.435Z,27.53
2018-11-28T03:11:46.838Z,28.07
2018-11-28T03:14:18.154Z,25.80
2018-11-28T03:16:49.218Z,28.03
2018-11-28T03:19:20.428Z,26.93
2018-11-28T03:21:54.878Z,29.50
2018-11-28T03:24:26.432Z,28.70
2018-11-28T03:26:58.163Z,27.43
2018-11-28T03:29:31.146Z,28.50
2018-11-28T03:32:08.654Z,26.90
2018-11-28T03:34:45.258Z,30.73
2018-11-28T03:37:12.504Z,28.00
2018-11-28T03:39:43.670Z,28.77
2018-11-28T03:42:14.909Z,28.90
2018-11-28T03:44:46.136Z,28.57
2018-11-28T03:47:19.411Z,29.53
2018-11-28T03:49:50.658Z,28.87
2018-11-28T03:52:21.308Z,29.03
2018-11-28T03:54:53.358Z,26.90
2018-11-28T03:57:24.326Z,28.67
2018-11-28T03:59:56.549Z,30.13
2018-11-28T04:02:27.120Z,28.40
2018-11-28T04:04:58.909Z,30.37
2018-11-28T04:07:33.735Z,27.13
2018-11-28T04:10:07.149Z,26.67
2018-11-28T04:12:37.769Z,31.23
2018-11-28T04:15:22.477Z,30.10
2018-11-28T04:17:54.550Z,27.70
2018-11-28T04:20:25.405Z,29.30
2018-11-28T04:22:58.044Z,29.47
2018-11-28T04:25:28.601Z,29.50
2018-11-28T04:28:00.981Z,30.37
2018-11-28T04:30:31.627Z,31.20
2018-11-28T04:33:02.192Z,30.23
2018-11-28T04:35:33.747Z,29.80
2018-11-28T04:38:05.924Z,30.20
2018-11-28T04:40:37.446Z,28.57
2018-11-28T04:43:09.685Z,28.73
2018-11-28T04:45:40.721Z,32.07
2018-11-28T04:48:11.268Z,31.20
2018-11-28T04:50:42.883Z,27.77
2018-11-28T04:53:20.242Z,28.77
2018-11-28T04:55:53.106Z,29.00
2018-11-28T04:58:24.465Z,27.73
2018-11-28T05:00:57.930Z,29.53
2018-11-28T05:03:29.345Z,29.03
2018-11-28T05:06:02.454Z,30.83
2018-11-28T05:08:32.762Z,30.37
2018-11-28T05:11:03.735Z,30.17
2018-11-28T05:13:35.978Z,31.07
2018-11-28T05:16:07.549Z,32.70
2018-11-28T05:18:39.158Z,31.30
2018-11-28T05:21:11.797Z,33.43
2018-11-28T05:23:42.027Z,33.33
2018-11-28T05:26:14.071Z,33.17
2018-11-28T05:28:44.670Z,29.83
2018-11-28T05:31:16.428Z,31.30
2018-11-28T05:33:49.042Z,33.07
2018-11-28T05:36:21.775Z,31.87
2018-11-28T05:38:52.487Z,31.90
2018-11-28T05:41:24.395Z,34.50
2018-11-28T05:44:01.067Z,33.80
2018-11-28T05:46:32.552Z,31.27
2018-11-28T05:49:15.010Z,33.80
2018-11-28T05:51:42.315Z,31.70
2018-11-28T05:54:13.120Z,32.33
2018-11-28T05:56:43.880Z,34.27
2018-11-28T05:59:15.785Z,34.73
2018-11-28T06:01:47.973Z,34.07
2018-11-28T06:04:19.918Z,35.03
2018-11-28T06:06:52.081Z,31.53
2018-11-28T06:09:23.877Z,31.50
2018-11-28T06:11:55.402Z,33.37
2018-11-28T06:14:26.372Z,31.67
2018-11-28T06:16:58.251Z,34.83
2018-11-28T06:19:29.147Z,34.30
2018-11-28T06:22:00.271Z,33.20
2018-11-28T06:24:33.611Z,33.50
2018-11-28T06:27:05.343Z,33.70
2018-11-28T06:29:40.826Z,32.20
2018-11-28T06:32:12.856Z,34.27
2018-11-28T06:34:44.407Z,34.27
2018-11-28T06:37:16.893Z,33.23
2018-11-28T06:39:48.571Z,32.47
2018-11-28T06:42:21.469Z,33.03
2018-11-28T06:44:55.026Z,33.40
2018-11-28T06:47:29.463Z,33.47
2018-11-28T06:50:00.837Z,34.40
2018-11-28T06:52:33.287Z,30.67
2018-11-28T06:55:04.881Z,31.23
2018-11-28T06:57:37.319Z,30.67
2018-11-28T07:00:13.845Z,33.13
2018-11-28T07:02:46.778Z,30.90
2018-11-28T07:05:22.185Z,32.77
2018-11-28T07:07:53.645Z,32.03
2018-11-28T07:10:26.065Z,32.70
2018-11-28T07:12:57.921Z,32.87
2018-11-28T07:15:31.822Z,32.53
2018-11-28T07:18:13.318Z,31.37
2018-11-28T07:20:45.229Z,32.03
2018-11-28T07:23:17.288Z,32.43
2018-11-28T07:25:49.708Z,32.43
2018-11-28T07:28:21.147Z,31.20
2018-11-28T07:31:01.669Z,33.50
2018-11-28T07:33:36.967Z,32.90
2018-11-28T07:36:09.147Z,33.90
2018-11-28T07:38:40.079Z,31.80
2018-11-28T07:41:11.440Z,30.93
2018-11-28T07:43:45.399Z,32.33
2018-11-28T07:46:18.446Z,30.77
2018-11-28T07:48:49.935Z,29.90
2018-11-28T07:51:21.384Z,31.40
2018-11-28T07:53:54.211Z,33.83
2018-11-28T07:56:26.906Z,34.07
2018-11-28T07:58:57.672Z,35.00
2018-11-28T08:01:29.731Z,34.27
2018-11-28T08:04:01.516Z,32.73
2018-11-28T08:06:32.328Z,31.97
2018-11-28T08:09:08.752Z,34.30
2018-11-28T08:11:41.666Z,32.57
2018-11-28T08:14:13.537Z,32.93
2018-11-28T08:16:46.430Z,33.13
2018-11-28T08:19:23.981Z,33.43
2018-11-28T08:21:53.438Z,32.43
2018-11-28T08:24:24.989Z,32.23
2018-11-28T08:26:58.411Z,31.13
2018-11-28T08:29:31.003Z,35.13
2018-11-28T08:32:04.239Z,33.17
2018-11-28T08:34:36.797Z,32.33
2018-11-28T08:37:11.769Z,31.20
2018-11-28T08:39:45.088Z,31.93
2018-11-28T08:42:26.028Z,31.70
2018-11-28T08:45:03.526Z,31.43
2018-11-28T08:47:42.253Z,31.90
2018-11-28T08:51:23.880Z,32.20
2018-11-28T08:53:56.833Z,32.40
2018-11-28T08:56:27.479Z,32.63
2018-11-28T08:59:10.574Z,32.37
2018-11-28T09:01:52.738Z,32.70
2018-11-28T09:04:28.326Z,32.50
2018-11-28T09:07:04.073Z,31.67
2018-11-28T09:09:41.967Z,32.20
2018-11-28T09:12:20.801Z,31.67
2018-11-28T09:14:58.390Z,30.70
2018-11-28T09:17:34.962Z,29.73
2018-11-28T09:20:12.751Z,32.93
2018-11-28T09:22:45.509Z,33.33
2018-11-28T09:25:20.758Z,30.17
2018-11-28T09:27:55.991Z,30.53
2018-11-28T09:30:31.079Z,30.53
2018-11-28T09:33:10.040Z,31.27
2018-11-28T09:35:43.765Z,30.23
2018-11-28T09:38:16.737Z,32.90
2018-11-28T09:40:48.425Z,33.37
2018-11-28T09:43:19.399Z,32.37
2018-11-28T09:45:49.892Z,31.10
2018-11-28T09:48:22.555Z,30.23
2018-11-28T09:50:53.217Z,29.90
2018-11-28T09:53:25.229Z,31.47
2018-11-28T09:55:57.425Z,30.67
2018-11-28T09:58:29.987Z,32.10
2018-11-28T10:01:03.092Z,30.30
2018-11-28T10:03:35.798Z,30.97
2018-11-28T10:06:07.517Z,29.53
2018-11-28T10:08:38.194Z,31.67
2018-11-28T10:11:10.010Z,31.07
2018-11-28T10:13:42.849Z,28.20
2018-11-28T10:16:15.173Z,31.17
2018-11-28T10:18:45.916Z,28.93
2018-11-28T10:21:17.908Z,29.40
2018-11-28T10:23:48.681Z,28.37
2018-11-28T10:26:20.676Z,27.03
2018-11-28T10:28:52.433Z,27.80
2018-11-28T10:31:26.006Z,26.40
2018-11-28T10:33:59.172Z,27.10
2018-11-28T10:36:31.656Z,28.37
2018-11-28T10:39:03.178Z,26.80
2018-11-28T10:41:36.828Z,25.70
2018-11-28T10:44:11.037Z,24.90
2018-11-28T10:46:43.838Z,24.43
2018-11-28T10:49:17.624Z,24.40
2018-11-28T10:51:50.438Z,23.40
2018-11-28T10:54:22.755Z,23.07
2018-11-28T10:56:54.494Z,24.77
2018-11-28T10:59:26.444Z,22.97
2018-11-28T11:02:03.478Z,23.07
2018-11-28T11:04:40.505Z,23.13
2018-11-28T11:07:16.218Z,22.23
2018-11-28T11:09:53.165Z,22.50
2018-11-28T11:14:32.655Z,23.47
2018-11-28T11:17:07.914Z,23.17
2018-11-28T11:19:39.568Z,23.83
2018-11-28T11:22:11.029Z,22.37
2018-11-28T11:24:43.050Z,21.10
2018-11-28T11:27:14.372Z,21.63
2018-11-28T11:29:46.048Z,21.53
2018-11-28T11:32:17.185Z,22.67
2018-11-28T11:34:48.497Z,21.43
2018-11-28T11:37:20.881Z,22.43
2018-11-28T11:39:53.600Z,20.67
2018-11-28T11:42:24.364Z,21.10
2018-11-28T11:44:57.402Z,20.93
2018-11-28T11:47:28.174Z,20.70
2018-11-28T11:50:00.883Z,20.97
2018-11-28T11:52:34.845Z,20.70
2018-11-28T11:55:07.661Z,19.90
2018-11-28T11:57:44.625Z,19.23
2018-11-28T12:00:18.372Z,19.93
2018-11-28T12:02:59.545Z,19.20
2018-11-28T12:05:31.280Z,18.90
2018-11-28T12:08:03.938Z,18.53
2018-11-28T12:10:34.788Z,18.40
2018-11-28T12:13:06.777Z,18.90
2018-11-28T12:15:37.438Z,18.40
2018-11-28T12:18:10.633Z,19.33
2018-11-28T12:20:47.825Z,18.93
2018-11-28T12:23:21.748Z,17.77
2018-11-28T12:25:54.212Z,18.77
2018-11-28T12:28:29.816Z,18.60
2018-11-28T12:31:01.519Z,17.73
2018-11-28T12:33:36.332Z,17.03
2018-11-28T12:36:09.583Z,17.10
2018-11-28T12:38:41.314Z,17.63
2018-11-28T12:41:13.923Z,17.10
2018-11-28T12:43:44.689Z,16.80
2018-11-28T12:46:18.065Z,17.60
2018-11-28T12:48:49.806Z,17.20
2018-11-28T12:51:20.921Z,17.47
2018-11-28T12:53:51.043Z,17.17
2018-11-28T12:56:22.419Z,18.63
2018-11-28T12:58:54.146Z,18.67
2018-11-28T13:01:24.884Z,17.10
2018-11-28T13:03:56.163Z,18.73
2018-11-28T13:06:27.552Z,17.83
2018-11-28T13:09:02.025Z,17.87
2018-11-28T13:11:34.517Z,17.57
2018-11-28T13:14:05.911Z,17.33
2018-11-28T13:16:37.189Z,17.63
2018-11-28T13:19:08.421Z,17.77
2018-11-28T13:21:38.912Z,19.03
2018-11-28T13:24:10.204Z,19.90
2018-11-28T13:26:41.034Z,18.13
2018-11-28T13:29:11.460Z,19.43
2018-11-28T13:31:43.492Z,19.43
2018-11-28T13:34:15.316Z,19.27
2018-11-28T13:36:46.252Z,18.83
2018-11-28T13:39:17.877Z,21.10
2018-11-28T13:41:49.800Z,19.97
2018-11-28T13:44:20.776Z,19.60
2018-11-28T13:46:59.005Z,20.30
2018-11-28T13:49:30.774Z,20.67
2018-11-28T13:52:03.024Z,20.43
2018-11-28T13:55:36.472Z,20.90
2018-11-28T13:57:06.748Z,21.37
2018-11-28T13:59:35.972Z,22.07
2018-11-28T14:02:07.939Z,21.43
2018-11-28T14:04:41.220Z,21.80
2018-11-28T14:07:13.759Z,22.70
2018-11-28T14:09:46.027Z,21.73
2018-11-28T14:12:17.467Z,21.63
2018-11-28T14:14:48.322Z,22.23
2018-11-28T14:17:22.284Z,22.20
2018-11-28T14:19:55.921Z,21.87
2018-11-28T14:22:27.725Z,20.60
2018-11-28T14:24:58.113Z,21.47
2018-11-28T14:27:28.756Z,22.97
2018-11-28T14:30:01.157Z,21.60
2018-11-28T14:32:34.762Z,21.03
2018-11-28T14:35:06.676Z,21.50
2018-11-28T14:37:38.866Z,22.03
2018-11-28T14:40:20.371Z,21.87
2018-11-28T14:42:52.428Z,20.27
2018-11-28T14:45:22.956Z,21.27
2018-11-28T14:47:54.149Z,20.77
2018-11-28T14:50:26.298Z,21.03
2018-11-28T14:53:00.314Z,20.20
2018-11-28T14:55:34.935Z,21.00
2018-11-28T14:58:07.069Z,20.37
2018-11-28T15:00:40.107Z,21.17
2018-11-28T15:03:16.323Z,20.97
2018-11-28T15:12:41.823Z,21.23
2018-11-28T15:15:13.537Z,21.73
2018-11-28T15:17:55.858Z,21.67
2018-11-28T15:20:27.289Z,21.87
2018-11-28T15:22:59.770Z,21.70
2018-11-28T15:25:30.457Z,20.60
2018-11-28T15:28:01.044Z,21.63
2018-11-28T15:30:32.018Z,21.07
2018-11-28T15:33:06.641Z,21.23
2018-11-28T15:35:41.932Z,20.93
2018-11-28T15:38:12.584Z,20.80
2018-11-28T15:40:44.959Z,21.10
2018-11-28T15:43:15.773Z,20.90
2018-11-28T15:45:46.082Z,20.97
2018-11-28T15:48:17.384Z,21.57
2018-11-28T15:50:49.438Z,22.43
2018-11-28T15:53:19.773Z,21.47
2018-11-28T15:55:51.794Z,21.97
2018-11-28T15:58:22.919Z,21.83
2018-11-28T16:00:55.242Z,21.53
2018-11-28T16:03:28.125Z,21.63
2018-11-28T16:06:00.847Z,21.77
2018-11-28T16:08:33.519Z,21.57
2018-11-28T16:11:07.966Z,21.30
2018-11-28T16:13:40.054Z,21.00
2018-11-28T16:16:12.195Z,23.20
2018-11-28T16:18:44.337Z,22.63
2018-11-28T16:21:16.167Z,22.47
2018-11-28T16:23:47.356Z,22.97
2018-11-28T16:26:18.100Z,21.27
2018-11-28T16:28:49.283Z,23.13
2018-11-28T16:31:21.378Z,23.37
2018-11-28T16:33:54.030Z,23.30
2018-11-28T16:36:24.410Z,23.67
2018-11-28T16:38:55.350Z,20.93
2018-11-28T16:41:25.763Z,23.67
2018-11-28T16:43:57.185Z,23.93
2018-11-28T16:46:28.207Z,22.67
2018-11-28T16:48:59.662Z,23.10
2018-11-28T16:51:32.582Z,22.33
2018-11-28T16:54:04.026Z,24.70
2018-11-28T16:56:35.560Z,23.03
2018-11-28T16:59:07.476Z,23.17
2018-11-28T17:01:39.130Z,22.30
2018-11-28T17:04:10.897Z,24.67
2018-11-28T17:06:42.174Z,23.80
2018-11-28T17:09:12.465Z,22.90
2018-11-28T17:11:43.158Z,22.97
2018-11-28T17:14:14.636Z,23.63
2018-11-28T17:16:45.506Z,23.17
2018-11-28T17:19:16.304Z,25.30
2018-11-28T17:21:46.591Z,23.40
2018-11-28T17:24:16.821Z,22.37
2018-11-28T17:26:49.064Z,23.77
2018-11-28T17:29:26.866Z,25.43
2018-11-28T17:31:56.987Z,24.63
2018-11-28T17:34:27.457Z,25.00
2018-11-28T17:36:57.622Z,24.00
2018-11-28T17:39:27.933Z,24.40
2018-11-28T17:41:58.898Z,26.77
2018-11-28T17:44:29.321Z,26.00
2018-11-28T17:46:59.864Z,24.57
2018-11-28T17:49:31.145Z,25.77
2018-11-28T17:52:02.655Z,26.27
2018-11-28T17:54:34.175Z,27.17
2018-11-28T17:57:06.140Z,27.67
2018-11-28T17:59:37.688Z,27.03
2018-11-28T18:02:10.125Z,27.13
2018-11-28T18:04:40.478Z,28.20
2018-11-28T18:07:12.703Z,26.53
2018-11-28T18:09:42.743Z,26.33
2018-11-28T18:12:13.520Z,26.83
2018-11-28T18:14:43.855Z,26.43
2018-11-28T18:17:14.872Z,30.30
2018-11-28T18:19:45.962Z,28.67
2018-11-28T18:25:20.935Z,27.63
2018-11-28T18:27:51.060Z,28.43
2018-11-28T18:30:21.841Z,27.63
2018-11-28T18:32:52.926Z,29.97
2018-11-28T18:35:23.343Z,29.67
2018-11-28T18:37:53.992Z,28.27
2018-11-28T18:40:25.095Z,26.93
2018-11-28T18:42:59.278Z,27.87
2018-11-28T18:45:31.582Z,25.90
2018-11-28T18:48:04.323Z,27.13
2018-11-28T18:50:36.449Z,28.40
2018-11-28T18:53:08.329Z,26.03
2018-11-28T18:55:40.344Z,26.37
2018-11-28T18:58:12.205Z,25.87
2018-11-28T19:00:42.475Z,26.67
2018-11-28T19:03:13.383Z,27.60
2018-11-28T19:05:44.278Z,26.37
2018-11-28T19:08:21.708Z,28.20
2018-11-28T19:10:52.195Z,25.50
2018-11-28T19:13:25.112Z,27.63
2018-11-28T19:15:59.059Z,28.03
2018-11-28T19:18:30.242Z,27.53
2018-11-28T19:21:01.462Z,27.23
2018-11-28T19:23:31.945Z,26.37
2018-11-28T19:26:03.352Z,27.17
2018-11-28T19:28:34.823Z,28.33
2018-11-28T19:31:09.179Z,28.07
2018-11-28T19:33:39.287Z,27.33
2018-11-28T19:36:11.616Z,27.80
2018-11-28T19:38:43.058Z,27.77
2018-11-28T19:41:20.393Z,28.40
2018-11-28T19:43:52.749Z,28.13
2018-11-28T19:46:26.137Z,27.90
2018-11-28T19:49:14.553Z,28.87
2018-11-28T19:51:47.518Z,28.53
2018-11-28T19:54:19.244Z,29.43
2018-11-28T19:56:51.048Z,28.57
2018-11-28T19:59:21.549Z,28.50
2018-11-28T20:01:53.966Z,28.00
2018-11-28T20:04:24.914Z,29.03
2018-11-28T20:06:57.431Z,29.23
2018-11-28T20:09:35.731Z,30.87
2018-11-28T20:12:07.353Z,29.23
2018-11-28T20:14:41.758Z,29.33
2018-11-28T20:17:19.072Z,31.20
2018-11-28T20:19:50.904Z,28.13
2018-11-28T20:22:26.192Z,29.33
2018-11-28T20:25:01.717Z,31.77
2018-11-28T20:27:34.412Z,28.70
2018-11-28T20:30:07.810Z,29.97
2018-11-28T20:32:38.062Z,29.47
2018-11-28T20:35:17.012Z,29.50
2018-11-28T20:37:53.127Z,30.50
2018-11-28T20:40:24.459Z,28.60
2018-11-28T20:42:57.701Z,30.57
2018-11-28T20:45:32.035Z,29.47
2018-11-28T20:48:05.431Z,30.47
2018-11-28T20:50:37.361Z,29.27
2018-11-28T20:53:14.545Z,28.57
2018-11-28T20:55:51.823Z,28.80
2018-11-28T21:01:01.925Z,29.43
2018-11-28T21:03:33.457Z,27.30
2018-11-28T21:06:06.592Z,28.03
2018-11-28T21:08:38.711Z,26.50
2018-11-28T21:11:11.508Z,28.27
2018-11-28T21:13:47.932Z,29.17
2018-11-28T21:16:22.537Z,28.13
2018-11-28T21:18:55.804Z,27.33
2018-11-28T21:21:27.506Z,28.50
2018-11-28T21:24:01.731Z,28.30
2018-11-28T21:26:33.019Z,26.97
2018-11-28T21:29:06.799Z,27.93
2018-11-28T21:31:38.481Z,28.47
2018-11-28T21:34:11.870Z,28.67
2018-11-28T21:36:43.652Z,27.00
2018-11-28T21:39:14.353Z,25.90
2018-11-28T21:41:45.075Z,26.03
2018-11-28T21:44:31.645Z,26.13
2018-11-28T21:47:16.718Z,26.60
2018-11-28T21:49:46.529Z,26.90
2018-11-28T21:52:16.335Z,24.83
2018-11-28T21:54:45.952Z,26.70
2018-11-28T21:57:15.728Z,27.00
2018-11-28T21:59:45.301Z,28.30
2018-11-28T22:02:14.968Z,28.07
2018-11-28T22:04:44.585Z,27.60
2018-11-28T22:07:16.048Z,27.10
2018-11-28T22:09:47.406Z,26.83
2018-11-28T22:12:21.567Z,27.20
2018-11-28T22:14:54.880Z,26.33
2018-11-28T22:17:25.054Z,25.37
2018-11-28T22:19:55.620Z,25.87
2018-11-28T22:22:25.221Z,28.00
2018-11-28T22:24:54.883Z,27.37
2018-11-28T22:27:24.500Z,27.30
2018-11-28T22:29:54.161Z,25.73
2018-11-28T22:32:23.752Z,27.50
2018-11-28T22:34:53.398Z,26.40
2018-11-28T22:37:23.136Z,26.53
2018-11-28T22:39:52.840Z,26.17
2018-11-28T22:42:22.553Z,26.33
2018-11-28T22:44:52.161Z,27.53
2018-11-28T22:47:21.756Z,27.97
2018-11-28T22:49:51.486Z,29.27
2018-11-28T22:52:26.474Z,27.90
2018-11-28T22:54:56.064Z,27.73
2018-11-28T22:57:25.720Z,26.00
2018-11-28T22:59:55.299Z,27.00
2018-11-28T23:02:57.147Z,26.73
2018-11-28T23:05:29.549Z,27.00
2018-11-28T23:07:59.947Z,26.53
2018-11-28T23:10:29.567Z,27.73
2018-11-28T23:12:59.172Z,26.27
2018-11-28T23:15:28.764Z,24.83
2018-11-28T23:17:58.443Z,27.33
2018-11-28T23:20:28.266Z,26.40
2018-11-28T23:22:57.963Z,27.07
2018-11-28T23:25:27.614Z,25.80
2018-11-28T23:27:57.321Z,26.03
2018-11-28T23:30:27.063Z,25.73
2018-11-28T23:32:56.758Z,25.47
2018-11-28T23:35:26.477Z,27.33
2018-11-28T23:37:56.076Z,25.80
2018-11-28T23:40:26.317Z,26.70
2018-11-28T23:42:56.214Z,26.33
2018-11-28T23:45:26.368Z,24.60
2018-11-28T23:47:56.005Z,26.60
2018-11-28T23:50:26.344Z,26.07
2018-11-28T23:52:56.241Z,24.53
2018-11-28T23:55:26.729Z,24.90
2018-11-28T23:57:56.437Z,25.37
